Hlavní strana
METAR-TAF:

METAR-TAF

Letiště :

Pärnu, Estonsko

zeměpisná šířka: 58-25-09N, zeměpisná délka: 024-28-22E, výška: 14 m

Aktuální stav počasí

Zpráva byla vytvořena před 14 hodinami a 11 minutami, v 13:50 UTC
Západní vítr 6 kt, proměnlivý mezi jihozápadním a západoseverozápadním
Teplota -3°C
Vlhkost vzduchu 100%
Tlak 988 hPa
Viditelnost 10 km a více
Zataženo ve výšce 1100 ft

METAR: EEPU 151350Z 26006KT 230V290 9999 OVC011 M03/M03 Q0988

Čas: 06:01 (04:01 UTC)


TAF: chybějící

Stav a předpovědi počasí z více než 4 000 letišť (zprávy METAR a TAF).

Červené a žluté tečky na mapě představují dostupné meteorologické stanice.

Když kurzor umístíte na tečku, zobrazí se název stanice.

Pak kliknutím zobrazíte stav a předpověď počasí.

Chcete-li změnit mapu, kliknutím na zelené tlačítko se znaménkem +mapu přiblížíte, kliknutím na zelené tlačítko se znaménkem – mapu oddálíte a kliknutím na zelené šipky přejdete na sousední mapy.


METAR-TAF: